createdAt,value
2024-05-09T00:00:41.831Z,9.62
2024-05-09T00:01:41.225Z,9.30
2024-05-09T00:02:41.216Z,9.62
2024-05-09T00:03:41.448Z,8.33
2024-05-09T00:04:41.427Z,9.62
2024-05-09T00:05:41.827Z,9.62
2024-05-09T00:06:41.552Z,8.97
2024-05-09T00:07:41.628Z,10.59
2024-05-09T00:08:41.836Z,9.62
2024-05-09T00:09:41.792Z,11.55
2024-05-09T00:10:41.918Z,8.97
2024-05-09T00:11:42.038Z,7.69
2024-05-09T00:12:42.041Z,10.91
2024-05-09T00:13:42.166Z,14.13
2024-05-09T00:14:42.185Z,11.23
2024-05-09T00:15:42.274Z,9.30
2024-05-09T00:16:42.475Z,11.23
2024-05-09T00:17:42.793Z,9.94
2024-05-09T00:18:42.640Z,9.30
2024-05-09T00:19:42.656Z,11.87
2024-05-09T00:20:42.767Z,9.30
2024-05-09T00:21:42.894Z,13.16
2024-05-09T00:22:42.900Z,11.23
2024-05-09T00:23:42.988Z,9.30
2024-05-09T00:24:43.082Z,9.62
2024-05-09T00:25:43.628Z,15.74
2024-05-09T00:26:43.308Z,10.59
2024-05-09T00:27:43.425Z,6.72
2024-05-09T00:28:43.429Z,9.94
2024-05-09T00:29:43.484Z,9.30
2024-05-09T00:30:43.589Z,8.01
2024-05-09T00:31:43.681Z,13.49
2024-05-09T00:32:43.881Z,9.62
2024-05-09T00:33:43.960Z,8.97
2024-05-09T00:34:43.905Z,9.62
2024-05-09T00:35:43.954Z,15.10
2024-05-09T00:36:44.054Z,9.30
2024-05-09T00:37:44.213Z,14.13
2024-05-09T00:38:44.301Z,7.04
2024-05-09T00:39:44.287Z,15.74
2024-05-09T00:40:44.381Z,9.30
2024-05-09T00:41:44.513Z,11.87
2024-05-09T00:42:44.540Z,7.36
2024-05-09T00:43:44.633Z,7.04
2024-05-09T00:44:44.693Z,8.97
2024-05-09T00:45:44.756Z,9.62
2024-05-09T00:46:44.869Z,8.97
2024-05-09T00:47:45.100Z,14.13
2024-05-09T00:48:45.088Z,18.00
2024-05-09T00:49:45.208Z,8.97
2024-05-09T00:50:45.449Z,8.01
2024-05-09T00:51:45.208Z,13.81
2024-05-09T00:52:45.355Z,10.91
2024-05-09T00:53:45.423Z,11.55
2024-05-09T00:54:45.464Z,8.97
2024-05-09T00:55:45.564Z,6.07
2024-05-09T00:56:45.634Z,8.97
2024-05-09T00:57:45.705Z,9.30
2024-05-09T00:58:45.809Z,9.94
2024-05-09T00:59:45.976Z,15.42
2024-05-09T01:00:46.013Z,11.87
2024-05-09T01:01:46.156Z,12.20
2024-05-09T01:02:46.217Z,4.14
2024-05-09T01:03:48.711Z,8.97
2024-05-09T01:04:46.442Z,8.65
2024-05-09T01:05:46.430Z,8.97
2024-05-09T01:06:46.491Z,8.97
2024-05-09T01:07:46.587Z,13.81
2024-05-09T01:08:46.666Z,11.55
2024-05-09T01:09:46.738Z,13.16
2024-05-09T01:10:48.556Z,6.72
2024-05-09T01:11:46.983Z,7.04
2024-05-09T01:12:46.995Z,10.91
2024-05-09T01:13:47.155Z,10.26
2024-05-09T01:14:47.172Z,7.04
2024-05-09T01:15:47.239Z,8.97
2024-05-09T01:16:47.367Z,13.81
2024-05-09T01:17:47.738Z,8.97
2024-05-09T01:18:47.643Z,14.45
2024-05-09T01:19:47.767Z,8.65
2024-05-09T01:20:47.734Z,14.78
2024-05-09T01:21:47.763Z,9.30
2024-05-09T01:22:47.892Z,8.97
2024-05-09T01:23:47.967Z,11.87
2024-05-09T01:24:47.991Z,8.97
2024-05-09T01:25:48.095Z,7.69
2024-05-09T01:26:48.130Z,8.65
2024-05-09T01:27:48.194Z,9.62
2024-05-09T01:28:48.389Z,9.30
2024-05-09T01:29:48.339Z,8.97
2024-05-09T01:30:48.429Z,9.30
2024-05-09T01:31:48.642Z,13.16
2024-05-09T01:32:48.690Z,9.94
2024-05-09T01:33:48.768Z,7.04
2024-05-09T01:34:48.803Z,8.97
2024-05-09T01:35:48.805Z,13.16
2024-05-09T01:36:48.895Z,5.75
2024-05-09T01:37:48.997Z,9.62
2024-05-09T01:38:49.031Z,9.94
2024-05-09T01:39:49.113Z,8.97
2024-05-09T01:40:49.217Z,10.91
2024-05-09T01:41:49.275Z,11.87
2024-05-09T01:42:49.373Z,7.36
2024-05-09T01:43:49.500Z,8.65
2024-05-09T01:44:49.587Z,9.30
2024-05-09T01:45:49.635Z,8.97
2024-05-09T01:46:49.760Z,8.65
2024-05-09T01:47:49.956Z,12.20
2024-05-09T01:48:50.026Z,12.84
2024-05-09T01:49:49.989Z,9.30
2024-05-09T01:50:50.061Z,10.26
2024-05-09T01:51:50.116Z,8.97
2024-05-09T01:52:50.209Z,9.94
2024-05-09T01:53:50.256Z,8.33
2024-05-09T01:54:50.361Z,8.33
2024-05-09T01:55:50.478Z,8.01
2024-05-09T01:56:50.484Z,8.33
2024-05-09T01:57:50.583Z,9.30
2024-05-09T01:58:50.676Z,9.62
2024-05-09T01:59:50.724Z,12.20
2024-05-09T02:00:50.855Z,8.01
2024-05-09T02:01:57.117Z,8.65
2024-05-09T02:02:51.168Z,9.30
2024-05-09T02:03:51.293Z,10.59
2024-05-09T02:04:51.361Z,14.45
2024-05-09T02:05:51.224Z,8.33
2024-05-09T02:06:51.223Z,8.65
2024-05-09T02:07:51.347Z,8.97
2024-05-09T02:08:51.386Z,6.72
2024-05-09T02:09:51.465Z,14.78
2024-05-09T02:10:51.696Z,12.20
2024-05-09T02:11:51.732Z,10.59
2024-05-09T02:12:51.809Z,12.20
2024-05-09T02:13:51.819Z,9.94
2024-05-09T02:14:51.934Z,8.33
2024-05-09T02:15:51.960Z,7.69
2024-05-09T02:16:52.067Z,8.97
2024-05-09T02:17:52.256Z,15.74
2024-05-09T02:18:52.488Z,8.33
2024-05-09T02:19:52.370Z,8.97
2024-05-09T02:20:52.553Z,7.69
2024-05-09T02:21:52.449Z,10.91
2024-05-09T02:22:52.572Z,5.43
2024-05-09T02:23:52.602Z,4.79
2024-05-09T02:24:52.685Z,8.33
2024-05-09T02:25:52.755Z,8.01
2024-05-09T02:26:52.823Z,12.20
2024-05-09T02:27:52.914Z,8.65
2024-05-09T02:28:53.016Z,12.52
2024-05-09T02:29:53.060Z,10.59
2024-05-09T02:30:53.125Z,8.01
2024-05-09T02:31:53.262Z,9.30
2024-05-09T02:32:53.358Z,11.55
2024-05-09T02:33:53.560Z,8.65
2024-05-09T02:34:53.495Z,4.79
2024-05-09T02:35:53.484Z,8.65
2024-05-09T02:36:53.560Z,8.33
2024-05-09T02:37:53.708Z,8.01
2024-05-09T02:38:53.712Z,8.01
2024-05-09T02:39:53.782Z,7.69
2024-05-09T02:40:53.912Z,8.01
2024-05-09T02:41:53.961Z,7.36
2024-05-09T02:42:54.085Z,6.07
2024-05-09T02:43:54.159Z,10.26
2024-05-09T02:44:54.279Z,7.69
2024-05-09T02:45:54.349Z,8.01
2024-05-09T02:46:54.447Z,13.49
2024-05-09T02:47:54.870Z,9.30
2024-05-09T02:48:54.674Z,11.55
2024-05-09T02:49:54.700Z,8.01
2024-05-09T02:50:54.830Z,15.10
2024-05-09T02:51:54.777Z,5.43
2024-05-09T02:52:54.901Z,8.65
2024-05-09T02:53:54.947Z,8.33
2024-05-09T02:54:55.023Z,4.79
2024-05-09T02:55:55.243Z,6.72
2024-05-09T02:56:55.210Z,8.65
2024-05-09T02:57:55.302Z,11.23
2024-05-09T02:58:55.420Z,7.36
2024-05-09T02:59:55.444Z,9.62
2024-05-09T03:00:55.592Z,7.36
2024-05-09T03:01:55.664Z,7.69
2024-05-09T03:02:55.718Z,8.01
2024-05-09T03:03:55.965Z,12.52
2024-05-09T03:04:56.049Z,4.79
2024-05-09T03:05:55.887Z,7.36
2024-05-09T03:06:55.978Z,9.62
2024-05-09T03:07:56.120Z,5.75
2024-05-09T03:08:56.173Z,12.84
2024-05-09T03:09:56.222Z,1.56
2024-05-09T03:10:56.387Z,1.24
2024-05-09T03:11:56.492Z,8.01
2024-05-09T03:12:56.449Z,7.04
2024-05-09T03:13:56.594Z,9.94
2024-05-09T03:14:56.616Z,2.21
2024-05-09T03:15:56.690Z,7.04
2024-05-09T03:16:56.814Z,7.69
2024-05-09T03:17:57.061Z,7.36
2024-05-09T03:18:56.998Z,8.65
2024-05-09T03:19:57.062Z,7.36
2024-05-09T03:20:57.215Z,7.69
2024-05-09T03:21:57.157Z,15.42
2024-05-09T03:22:57.312Z,6.72
2024-05-09T03:23:57.361Z,13.49
2024-05-09T03:24:57.362Z,7.36
2024-05-09T03:25:57.504Z,2.53
2024-05-09T03:26:57.607Z,10.26
2024-05-09T03:27:57.658Z,7.04
2024-05-09T03:28:57.738Z,9.62
2024-05-09T03:29:57.785Z,4.79
2024-05-09T03:30:57.851Z,4.46
2024-05-09T03:31:58.029Z,10.59
2024-05-09T03:32:58.147Z,10.26
2024-05-09T03:33:58.385Z,6.72
2024-05-09T03:34:58.264Z,9.30
2024-05-09T03:35:58.313Z,3.50
2024-05-09T03:36:58.372Z,9.62
2024-05-09T03:37:58.507Z,11.55
2024-05-09T03:38:58.551Z,4.46
2024-05-09T03:39:58.637Z,10.26
2024-05-09T03:40:58.782Z,5.11
2024-05-09T03:41:58.822Z,7.04
2024-05-09T03:42:59.008Z,3.82
2024-05-09T03:43:59.047Z,6.40
2024-05-09T03:44:59.110Z,5.11
2024-05-09T03:45:59.139Z,6.72
2024-05-09T03:46:59.343Z,6.40
2024-05-09T03:47:59.472Z,3.82
2024-05-09T03:48:59.439Z,2.21
2024-05-09T03:49:59.464Z,7.69
2024-05-09T03:50:59.550Z,3.82
2024-05-09T03:51:59.630Z,6.72
2024-05-09T03:52:59.723Z,8.33
2024-05-09T03:53:59.774Z,7.69
2024-05-09T03:54:59.877Z,5.75
2024-05-09T03:56:00.007Z,1.88
2024-05-09T03:56:59.994Z,9.30
2024-05-09T03:58:00.180Z,10.26
2024-05-09T03:59:00.242Z,4.14
2024-05-09T04:00:00.280Z,15.42
2024-05-09T04:01:00.382Z,9.30
2024-05-09T04:02:00.560Z,5.75
2024-05-09T04:03:00.781Z,12.20
2024-05-09T04:04:00.658Z,15.74
2024-05-09T04:05:00.695Z,11.55
2024-05-09T04:06:00.741Z,9.30
2024-05-09T04:07:00.820Z,5.11
2024-05-09T04:08:00.985Z,1.56
2024-05-09T04:09:00.982Z,7.04
2024-05-09T04:10:01.064Z,3.82
2024-05-09T04:11:01.268Z,8.97
2024-05-09T04:12:01.380Z,8.01
2024-05-09T04:13:01.434Z,13.81
2024-05-09T04:14:01.428Z,7.69
2024-05-09T04:15:01.491Z,6.72
2024-05-09T04:16:01.572Z,11.23
2024-05-09T04:17:01.665Z,9.30
2024-05-09T04:18:02.492Z,11.23
2024-05-09T04:19:01.921Z,8.01
2024-05-09T04:20:02.071Z,9.62
2024-05-09T04:21:02.140Z,10.91
2024-05-09T04:22:02.018Z,6.07
2024-05-09T04:23:02.155Z,7.04
2024-05-09T04:24:02.210Z,11.55
2024-05-09T04:25:02.277Z,6.72
2024-05-09T04:26:02.354Z,6.72
2024-05-09T04:27:02.413Z,5.43
2024-05-09T04:28:02.474Z,6.72
2024-05-09T04:29:02.629Z,6.72
2024-05-09T04:30:03.599Z,3.82
2024-05-09T04:31:02.701Z,6.72
2024-05-09T04:32:02.901Z,6.72
2024-05-09T04:33:03.030Z,8.65
2024-05-09T04:34:03.074Z,6.40
2024-05-09T04:35:03.100Z,12.20
2024-05-09T04:36:03.099Z,9.30
2024-05-09T04:37:03.197Z,14.45
2024-05-09T04:38:03.348Z,1.56
2024-05-09T04:39:03.342Z,7.04
2024-05-09T04:40:05.406Z,3.17
2024-05-09T04:41:03.543Z,9.30
2024-05-09T04:42:03.594Z,6.72
2024-05-09T04:43:03.726Z,12.20
2024-05-09T04:44:03.816Z,2.21
2024-05-09T04:45:03.836Z,2.53
2024-05-09T04:46:03.911Z,7.04
2024-05-09T04:47:03.990Z,2.85
2024-05-09T04:48:04.254Z,9.30
2024-05-09T04:49:04.240Z,4.79
2024-05-09T04:51:30.223Z,12.20
2024-05-09T04:52:02.172Z,6.40
2024-05-09T04:52:36.206Z,12.52
2024-05-09T04:53:36.433Z,7.69
2024-05-09T04:54:36.883Z,7.04
2024-05-09T04:55:36.466Z,16.71
2024-05-09T04:56:36.576Z,11.55
2024-05-09T04:57:36.579Z,6.72
2024-05-09T04:58:36.678Z,12.84
2024-05-09T04:59:36.825Z,9.94
2024-05-09T05:00:38.447Z,11.55
2024-05-09T05:01:36.996Z,7.04
2024-05-09T05:02:37.116Z,11.23
2024-05-09T05:03:37.360Z,10.26
2024-05-09T05:04:37.271Z,17.35
2024-05-09T05:05:37.268Z,7.04
2024-05-09T05:06:37.370Z,2.21
2024-05-09T05:07:37.402Z,7.04
2024-05-09T05:08:37.633Z,7.04
2024-05-09T05:09:37.555Z,2.21
2024-05-09T05:10:37.643Z,7.04
2024-05-09T05:11:37.868Z,7.36
2024-05-09T05:12:37.764Z,12.52
2024-05-09T05:13:40.970Z,10.59
2024-05-09T05:14:38.026Z,7.04
2024-05-09T05:15:38.169Z,9.94
2024-05-09T05:16:38.123Z,7.36
2024-05-09T05:17:38.531Z,8.01
2024-05-09T05:18:38.327Z,7.69
2024-05-09T05:19:38.521Z,7.36
2024-05-09T05:20:38.432Z,15.10
2024-05-09T05:21:38.446Z,8.01
2024-05-09T05:22:38.512Z,7.04
2024-05-09T05:23:38.783Z,11.55
2024-05-09T05:24:38.645Z,12.84
2024-05-09T05:25:38.735Z,7.36
2024-05-09T05:26:38.827Z,9.94
2024-05-09T05:27:38.899Z,7.36
2024-05-09T05:28:39.393Z,9.94
2024-05-09T05:29:39.119Z,9.30
2024-05-09T05:30:39.179Z,7.04
2024-05-09T05:31:39.243Z,9.62
2024-05-09T05:32:39.391Z,8.01
2024-05-09T05:33:39.511Z,3.82
2024-05-09T05:34:39.463Z,9.62
2024-05-09T05:35:39.762Z,11.55
2024-05-09T05:36:39.609Z,8.01
2024-05-09T05:37:39.711Z,8.33
2024-05-09T05:38:39.807Z,8.01
2024-05-09T05:39:39.830Z,8.65
2024-05-09T05:40:40.921Z,8.01
2024-05-09T05:41:40.020Z,4.14
2024-05-09T05:42:40.149Z,14.13
2024-05-09T05:43:40.213Z,8.01
2024-05-09T05:44:40.289Z,8.33
2024-05-09T05:45:40.348Z,8.65
2024-05-09T05:46:40.422Z,6.40
2024-05-09T05:47:40.918Z,11.23
2024-05-09T05:48:40.672Z,5.43
2024-05-09T05:49:40.745Z,6.40
2024-05-09T05:50:40.772Z,10.59
2024-05-09T05:51:40.791Z,8.97
2024-05-09T05:52:40.861Z,8.65
2024-05-09T05:53:41.142Z,12.20
2024-05-09T05:54:41.034Z,10.26
2024-05-09T05:55:41.182Z,9.62
2024-05-09T05:56:41.214Z,9.62
2024-05-09T05:57:41.266Z,9.30
2024-05-09T05:58:41.386Z,9.94
2024-05-09T05:59:41.519Z,18.00
2024-05-09T06:00:42.400Z,9.62
2024-05-09T06:01:41.602Z,9.30
2024-05-09T06:02:41.945Z,11.55
2024-05-09T06:03:41.953Z,14.45
2024-05-09T06:04:41.911Z,9.62
2024-05-09T06:05:41.956Z,15.42
2024-05-09T06:06:42.071Z,7.69
2024-05-09T06:07:42.117Z,10.26
2024-05-09T06:08:42.388Z,10.26
2024-05-09T06:09:42.320Z,12.84
2024-05-09T06:10:42.711Z,10.59
2024-05-09T06:11:42.528Z,10.26
2024-05-09T06:12:42.565Z,12.84
2024-05-09T06:13:42.675Z,13.81
2024-05-09T06:14:42.759Z,11.55
2024-05-09T06:15:43.602Z,13.81
2024-05-09T06:16:42.940Z,11.55
2024-05-09T06:17:43.136Z,12.52
2024-05-09T06:18:43.186Z,10.26
2024-05-09T06:19:43.232Z,10.26
2024-05-09T06:20:44.218Z,12.20
2024-05-09T06:21:43.336Z,11.55
2024-05-09T06:22:43.388Z,10.59
2024-05-09T06:23:43.578Z,12.84
2024-05-09T06:24:43.545Z,12.20
2024-05-09T06:25:43.669Z,12.20
2024-05-09T06:26:43.768Z,13.16
2024-05-09T06:27:43.844Z,13.16
2024-05-09T06:28:43.905Z,14.78
2024-05-09T06:29:43.967Z,18.00
2024-05-09T06:30:44.138Z,10.91
2024-05-09T06:31:44.248Z,13.16
2024-05-09T06:32:44.374Z,14.78
2024-05-09T06:33:44.501Z,13.16
2024-05-09T06:34:44.556Z,18.96
2024-05-09T06:35:45.016Z,12.84
2024-05-09T06:36:44.541Z,14.45
2024-05-09T06:37:44.654Z,18.96
2024-05-09T06:38:44.751Z,18.00
2024-05-09T06:39:44.795Z,17.35
2024-05-09T06:40:45.107Z,15.42
2024-05-09T06:41:44.961Z,17.03
2024-05-09T06:42:45.054Z,14.45
2024-05-09T06:43:45.148Z,16.06
2024-05-09T06:44:45.198Z,20.90
2024-05-09T06:45:45.317Z,15.42
2024-05-09T06:46:45.474Z,17.68
2024-05-09T06:47:45.527Z,15.10
2024-05-09T06:48:46.000Z,18.00
2024-05-09T06:49:45.727Z,15.74
2024-05-09T06:50:45.782Z,19.93
2024-05-09T06:51:45.752Z,17.68
2024-05-09T06:52:45.930Z,16.71
2024-05-09T06:53:45.950Z,16.39
2024-05-09T06:54:45.957Z,17.35
2024-05-09T06:55:46.094Z,18.64
2024-05-09T06:56:46.157Z,16.71
2024-05-09T06:57:46.235Z,20.58
2024-05-09T06:58:46.378Z,19.61
2024-05-09T06:59:46.385Z,21.87
2024-05-09T07:00:46.563Z,18.00
2024-05-09T07:01:46.593Z,17.35
2024-05-09T07:02:46.877Z,17.35
2024-05-09T07:03:46.883Z,15.42
2024-05-09T07:04:47.078Z,18.96
2024-05-09T07:05:48.153Z,16.39
2024-05-09T07:06:46.934Z,18.00
2024-05-09T07:07:47.010Z,18.96
2024-05-09T07:08:48.597Z,18.00
2024-05-09T07:09:47.210Z,18.64
2024-05-09T07:10:47.458Z,18.96
2024-05-09T07:11:47.448Z,18.64
2024-05-09T07:12:47.418Z,18.64
2024-05-09T07:13:47.550Z,18.64
2024-05-09T07:14:47.669Z,18.96
2024-05-09T07:15:47.727Z,18.96
2024-05-09T07:16:47.893Z,18.32
2024-05-09T07:17:48.053Z,22.19
2024-05-09T07:18:48.154Z,19.61
2024-05-09T07:19:48.166Z,19.61
2024-05-09T07:20:49.087Z,19.93
2024-05-09T07:21:48.162Z,19.29
2024-05-09T07:22:48.318Z,20.58
2024-05-09T07:23:48.429Z,20.58
2024-05-09T07:24:48.411Z,20.25
2024-05-09T07:25:48.669Z,20.25
2024-05-09T07:26:48.660Z,19.93
2024-05-09T07:27:48.621Z,20.25
2024-05-09T07:28:48.830Z,21.22
2024-05-09T07:29:48.848Z,19.93
2024-05-09T07:30:48.919Z,22.19
2024-05-09T07:31:49.076Z,25.73
2024-05-09T07:32:49.337Z,21.22
2024-05-09T07:33:49.205Z,19.61
2024-05-09T07:34:49.209Z,22.19
2024-05-09T07:35:49.421Z,25.73
2024-05-09T07:36:49.377Z,20.90
2024-05-09T07:37:49.479Z,21.87
2024-05-09T07:38:49.616Z,22.19
2024-05-09T07:39:49.603Z,23.80
2024-05-09T07:40:49.798Z,21.54
2024-05-09T07:41:49.780Z,21.54
2024-05-09T07:42:49.885Z,20.58
2024-05-09T07:43:49.990Z,20.90
2024-05-09T07:44:50.027Z,22.83
2024-05-09T07:45:54.051Z,21.87
2024-05-09T07:47:52.282Z,21.87
2024-05-09T07:51:31.668Z,22.51
2024-05-09T07:53:37.277Z,22.51
2024-05-09T07:53:51.937Z,23.15
2024-05-09T07:54:24.182Z,23.15
2024-05-09T07:55:24.124Z,24.77
2024-05-09T07:56:25.408Z,25.09
2024-05-09T07:57:24.199Z,27.99
2024-05-09T07:58:24.264Z,24.44
2024-05-09T07:59:24.315Z,23.15
2024-05-09T08:00:30.910Z,26.38
2024-05-09T08:01:24.643Z,23.48
2024-05-09T08:02:24.750Z,23.15
2024-05-09T08:03:24.755Z,23.80
2024-05-09T08:04:26.565Z,23.80
2024-05-09T08:05:24.919Z,28.96
2024-05-09T08:06:24.866Z,24.12
2024-05-09T08:07:25.047Z,24.12
2024-05-09T08:08:25.042Z,26.05
2024-05-09T08:09:25.154Z,24.77
2024-05-09T08:10:28.839Z,28.96
2024-05-09T08:11:25.314Z,24.77
2024-05-09T08:12:25.364Z,32.18
2024-05-09T08:13:25.422Z,26.70
2024-05-09T08:14:25.531Z,28.31
2024-05-09T08:15:25.618Z,25.41
2024-05-09T08:16:25.791Z,27.34
2024-05-09T08:17:25.912Z,29.60
2024-05-09T08:18:26.060Z,25.73
2024-05-09T08:19:25.977Z,29.28
2024-05-09T08:20:31.138Z,29.28
2024-05-09T08:21:26.129Z,26.05
2024-05-09T08:22:26.154Z,31.86
2024-05-09T08:23:26.265Z,26.05
2024-05-09T08:24:26.494Z,26.05
2024-05-09T08:25:26.505Z,30.24
2024-05-09T08:26:26.508Z,26.70
2024-05-09T08:27:26.630Z,29.60
2024-05-09T08:28:26.764Z,26.70
2024-05-09T08:29:26.755Z,26.38
2024-05-09T08:30:33.450Z,25.73
2024-05-09T08:31:27.020Z,26.38
2024-05-09T08:32:27.133Z,27.02
2024-05-09T08:33:27.340Z,27.02
2024-05-09T08:34:27.315Z,25.09
2024-05-09T08:35:27.350Z,29.28
2024-05-09T08:36:27.439Z,27.67
2024-05-09T08:37:31.101Z,23.80
2024-05-09T08:38:27.554Z,26.38
2024-05-09T08:39:27.715Z,27.34
2024-05-09T08:40:34.072Z,27.67
2024-05-09T08:41:27.815Z,27.34
2024-05-09T08:42:27.882Z,26.70
2024-05-09T08:43:28.035Z,27.02
2024-05-09T08:44:27.995Z,29.92
2024-05-09T08:45:28.199Z,27.34
2024-05-09T08:46:28.413Z,28.96
2024-05-09T08:47:28.359Z,29.92
2024-05-09T08:48:28.423Z,28.96
2024-05-09T08:49:28.589Z,31.53
2024-05-09T08:50:36.000Z,30.57
2024-05-09T08:51:28.583Z,28.96
2024-05-09T08:52:28.672Z,29.92
2024-05-09T08:53:28.751Z,28.63
2024-05-09T08:54:28.929Z,27.67
2024-05-09T08:55:28.877Z,28.63
2024-05-09T08:56:28.969Z,28.63
2024-05-09T08:57:29.081Z,28.31
2024-05-09T08:58:29.146Z,28.63
2024-05-09T08:59:29.254Z,28.31
2024-05-09T09:00:36.200Z,29.28
2024-05-09T09:01:29.461Z,28.63
2024-05-09T09:02:29.608Z,28.96
2024-05-09T09:03:29.812Z,28.31
2024-05-09T09:04:29.715Z,29.28
2024-05-09T09:05:29.975Z,28.96
2024-05-09T09:06:29.836Z,30.24
2024-05-09T09:07:29.965Z,29.60
2024-05-09T09:08:29.979Z,29.28
2024-05-09T09:09:30.112Z,29.92
2024-05-09T09:10:32.357Z,28.63
2024-05-09T09:11:30.223Z,29.28
2024-05-09T09:12:30.331Z,31.53
2024-05-09T09:13:30.377Z,28.96
2024-05-09T09:14:30.449Z,29.92
2024-05-09T09:15:30.656Z,29.60
2024-05-09T09:16:30.665Z,29.92
2024-05-09T09:17:30.766Z,29.92
2024-05-09T09:18:31.178Z,29.60
2024-05-09T09:19:31.019Z,29.92
2024-05-09T09:20:36.260Z,33.14
2024-05-09T09:21:31.089Z,28.63
2024-05-09T09:22:31.476Z,30.24
2024-05-09T09:23:31.301Z,30.57
2024-05-09T09:24:31.313Z,33.79
2024-05-09T09:25:31.412Z,30.24
2024-05-09T09:26:31.482Z,30.57
2024-05-09T09:27:31.621Z,31.21
2024-05-09T09:28:31.638Z,30.24
2024-05-09T09:29:31.681Z,30.57
2024-05-09T09:30:36.887Z,30.57
2024-05-09T09:31:31.967Z,29.28
2024-05-09T09:32:32.078Z,32.82
2024-05-09T09:33:32.653Z,35.08
2024-05-09T09:34:32.490Z,30.89
2024-05-09T09:35:32.209Z,30.24
2024-05-09T09:36:32.239Z,31.53
2024-05-09T09:37:32.326Z,29.60
2024-05-09T09:38:32.388Z,32.50
2024-05-09T09:39:32.566Z,35.72
2024-05-09T09:40:34.819Z,30.24
2024-05-09T09:41:32.628Z,30.24
2024-05-09T09:42:32.761Z,30.24
2024-05-09T09:43:32.815Z,31.21
2024-05-09T09:44:34.049Z,31.21
2024-05-09T09:45:33.080Z,32.50
2024-05-09T09:46:33.129Z,30.89
2024-05-09T09:47:33.231Z,35.08
2024-05-09T09:48:33.428Z,31.53
2024-05-09T09:49:33.485Z,36.37
2024-05-09T09:50:34.863Z,36.04
2024-05-09T09:51:33.524Z,30.57
2024-05-09T09:52:33.642Z,31.86
2024-05-09T09:53:33.691Z,35.40
2024-05-09T09:54:33.839Z,30.89
2024-05-09T09:55:33.887Z,33.79
2024-05-09T09:56:33.987Z,31.21
2024-05-09T09:57:34.097Z,32.82
2024-05-09T09:58:34.163Z,31.21
2024-05-09T09:59:34.228Z,32.82
2024-05-09T10:00:34.512Z,30.89
2024-05-09T10:01:34.616Z,31.21
2024-05-09T10:02:34.538Z,32.50
2024-05-09T10:03:34.860Z,33.14
2024-05-09T10:04:34.777Z,32.82
2024-05-09T10:05:34.959Z,31.86
2024-05-09T10:06:34.872Z,30.89
2024-05-09T10:07:34.906Z,32.50
2024-05-09T10:08:34.989Z,31.86
2024-05-09T10:09:35.116Z,32.18
2024-05-09T10:10:35.404Z,32.82
2024-05-09T10:11:42.040Z,31.86
2024-05-09T10:12:35.441Z,31.53
2024-05-09T10:13:35.547Z,31.21
2024-05-09T10:14:35.490Z,31.21
2024-05-09T10:15:35.651Z,31.53
2024-05-09T10:16:35.727Z,31.53
2024-05-09T10:17:35.976Z,31.86
2024-05-09T10:18:35.993Z,30.89
2024-05-09T10:19:36.110Z,30.57
2024-05-09T10:20:36.061Z,30.89
2024-05-09T10:21:36.189Z,30.89
2024-05-09T10:22:36.209Z,36.04
2024-05-09T10:23:36.348Z,30.89
2024-05-09T10:24:36.426Z,29.60
2024-05-09T10:25:36.400Z,30.89
2024-05-09T10:26:36.495Z,30.57
2024-05-09T10:27:36.682Z,35.08
2024-05-09T10:28:36.690Z,31.21
2024-05-09T10:29:36.767Z,29.92
2024-05-09T10:30:37.429Z,29.92
2024-05-09T10:31:36.985Z,29.92
2024-05-09T10:32:37.056Z,33.14
2024-05-09T10:33:37.371Z,30.57
2024-05-09T10:34:37.258Z,27.02
2024-05-09T10:35:37.384Z,28.31
2024-05-09T10:36:37.385Z,30.24
2024-05-09T10:37:37.396Z,29.60
2024-05-09T10:38:37.478Z,33.47
2024-05-09T10:39:37.594Z,29.60
2024-05-09T10:40:37.761Z,29.60
2024-05-09T10:41:37.751Z,30.24
2024-05-09T10:42:37.836Z,30.24
2024-05-09T10:43:37.931Z,29.28
2024-05-09T10:44:38.015Z,31.21
2024-05-09T10:45:38.095Z,30.24
2024-05-09T10:46:38.190Z,29.60
2024-05-09T10:47:38.304Z,29.60
2024-05-09T10:48:38.554Z,33.79
2024-05-09T10:49:38.451Z,29.92
2024-05-09T10:50:38.477Z,29.60
2024-05-09T10:51:38.620Z,29.28
2024-05-09T10:52:38.618Z,30.24
2024-05-09T10:53:38.759Z,29.60
2024-05-09T10:54:38.839Z,29.92
2024-05-09T10:55:38.887Z,30.89
2024-05-09T10:56:38.925Z,29.60
2024-05-09T10:57:39.180Z,28.96
2024-05-09T10:58:39.090Z,28.96
2024-05-09T10:59:39.199Z,30.24
2024-05-09T11:00:39.369Z,29.28
2024-05-09T11:01:39.542Z,31.86
2024-05-09T11:02:39.635Z,29.28
2024-05-09T11:03:39.973Z,32.82
2024-05-09T11:04:39.767Z,29.60
2024-05-09T11:05:39.784Z,29.60
2024-05-09T11:06:39.895Z,29.60
2024-05-09T11:07:39.861Z,29.60
2024-05-09T11:08:39.958Z,30.89
2024-05-09T11:09:40.100Z,29.60
2024-05-09T11:10:40.222Z,29.28
2024-05-09T11:11:40.352Z,29.60
2024-05-09T11:12:40.319Z,29.28
2024-05-09T11:13:40.376Z,29.28
2024-05-09T11:14:40.466Z,28.96
2024-05-09T11:15:40.553Z,28.63
2024-05-09T11:16:40.599Z,32.82
2024-05-09T11:17:40.855Z,28.96
2024-05-09T11:18:41.094Z,29.28
2024-05-09T11:19:41.072Z,28.63
2024-05-09T11:20:41.082Z,29.60
2024-05-09T11:21:41.085Z,29.28
2024-05-09T11:22:41.072Z,27.99
2024-05-09T11:23:41.431Z,34.43
2024-05-09T11:24:41.317Z,30.89
2024-05-09T11:25:41.335Z,30.57
2024-05-09T11:26:41.435Z,28.63
2024-05-09T11:27:41.555Z,29.28
2024-05-09T11:28:41.594Z,29.92
2024-05-09T11:29:41.708Z,29.28
2024-05-09T11:30:41.840Z,29.60
2024-05-09T11:31:41.991Z,28.63
2024-05-09T11:32:42.025Z,30.24
2024-05-09T11:33:42.233Z,29.60
2024-05-09T11:34:42.308Z,29.60
2024-05-09T11:35:42.162Z,29.60
2024-05-09T11:36:42.290Z,29.60
2024-05-09T11:37:42.385Z,30.24
2024-05-09T11:38:42.433Z,30.24
2024-05-09T11:39:42.622Z,30.24
2024-05-09T11:40:42.798Z,29.92
2024-05-09T11:41:42.804Z,30.57
2024-05-09T11:42:42.884Z,31.86
2024-05-09T11:43:42.878Z,30.24
2024-05-09T11:44:42.970Z,30.24
2024-05-09T11:45:43.075Z,29.28
2024-05-09T11:46:43.095Z,33.14
2024-05-09T11:47:43.239Z,28.63
2024-05-09T11:48:43.603Z,30.24
2024-05-09T11:49:43.420Z,30.57
2024-05-09T11:50:43.478Z,31.86
2024-05-09T11:51:43.551Z,28.63
2024-05-09T11:52:43.606Z,32.18
2024-05-09T11:53:43.701Z,29.60
2024-05-09T11:54:43.835Z,33.47
2024-05-09T11:55:43.864Z,33.79
2024-05-09T11:56:43.963Z,30.89
2024-05-09T11:57:44.093Z,28.96
2024-05-09T11:58:44.140Z,28.63
2024-05-09T11:59:44.212Z,28.96
2024-05-09T12:00:44.484Z,32.50
2024-05-09T12:01:44.558Z,27.99
2024-05-09T12:02:44.500Z,29.60
2024-05-09T12:03:44.785Z,27.99
2024-05-09T12:04:44.858Z,27.99
2024-05-09T12:05:44.973Z,27.99
2024-05-09T12:06:44.867Z,28.96
2024-05-09T12:07:44.916Z,31.86
2024-05-09T12:08:44.966Z,26.38
2024-05-09T12:09:45.150Z,26.05
2024-05-09T12:10:45.234Z,29.28
2024-05-09T12:11:45.254Z,27.02
2024-05-09T12:12:45.395Z,27.99
2024-05-09T12:13:45.388Z,27.67
2024-05-09T12:14:45.462Z,27.67
2024-05-09T12:15:45.601Z,27.02
2024-05-09T12:16:45.759Z,28.31
2024-05-09T12:17:47.784Z,26.38
2024-05-09T12:18:45.913Z,28.31
2024-05-09T12:19:45.954Z,27.67
2024-05-09T12:20:45.960Z,29.92
2024-05-09T12:21:46.036Z,27.67
2024-05-09T12:22:46.111Z,28.96
2024-05-09T12:23:46.204Z,26.38
2024-05-09T12:24:46.435Z,27.67
2024-05-09T12:25:46.351Z,27.67
2024-05-09T12:26:46.433Z,29.60
2024-05-09T12:27:46.537Z,31.21
2024-05-09T12:28:46.599Z,26.38
2024-05-09T12:29:46.737Z,32.82
2024-05-09T12:30:46.832Z,32.18
2024-05-09T12:31:46.944Z,27.67
2024-05-09T12:32:47.131Z,28.31
2024-05-09T12:33:47.134Z,27.99
2024-05-09T12:34:47.148Z,28.96
2024-05-09T12:35:49.259Z,27.67
2024-05-09T12:36:47.342Z,27.99
2024-05-09T12:37:47.338Z,27.67
2024-05-09T12:38:47.420Z,27.02
2024-05-09T12:39:47.595Z,30.89
2024-05-09T12:40:47.598Z,27.99
2024-05-09T12:41:47.753Z,32.18
2024-05-09T12:42:47.798Z,31.86
2024-05-09T12:43:47.915Z,32.50
2024-05-09T12:44:47.935Z,26.70
2024-05-09T12:45:48.099Z,29.60
2024-05-09T12:46:48.057Z,29.28
2024-05-09T12:47:48.231Z,29.92
2024-05-09T12:48:48.350Z,25.41
2024-05-09T12:49:48.391Z,27.99
2024-05-09T12:50:48.437Z,26.70
2024-05-09T12:51:48.529Z,29.60
2024-05-09T12:52:48.601Z,27.34
2024-05-09T12:53:48.631Z,26.70
2024-05-09T12:54:48.730Z,27.67
2024-05-09T12:55:56.425Z,27.34
2024-05-09T12:56:48.834Z,27.67
2024-05-09T12:57:48.926Z,27.67
2024-05-09T12:58:49.046Z,31.21
2024-05-09T12:59:49.104Z,27.34
2024-05-09T13:00:49.338Z,27.34
2024-05-09T13:01:49.360Z,27.67
2024-05-09T13:02:49.393Z,27.67
2024-05-09T13:03:49.846Z,27.34
2024-05-09T13:04:49.643Z,26.70
2024-05-09T13:05:49.793Z,27.02
2024-05-09T13:06:49.759Z,27.34